Time;durP1;ratioP1;P1;durP2;ratioP2;P2;SDS_P1;SDS_P2;PMS_P1;PMS_P2;Temp;Humidity;BMP_temperature;BMP_pressure;BME280_temperature;BME280_humidity;BME280_pressure;Samples;Min_cycle;Max_cycle;Signal;HPM_P1;HPM_P2
2022/05/17 00:01:41;;;;;;;4.63;2.53;;;15.90;99.90;;;;;;4919084;29;20035;-79
2022/05/17 00:04:07;;;;;;;4.38;2.75;;;15.90;99.90;;;;;;4924179;29;20055;-79
2022/05/17 00:06:33;;;;;;;5.18;3.60;;;15.80;99.90;;;;;;4931943;29;20056;-79
2022/05/17 00:08:58;;;;;;;4.13;2.78;;;15.80;99.90;;;;;;4932408;29;20074;-79
2022/05/17 00:11:25;;;;;;;7.03;3.83;;;15.80;99.90;;;;;;4929873;29;20027;-80
2022/05/17 00:13:51;;;;;;;5.05;3.50;;;15.70;99.90;;;;;;4939731;29;20032;-79
2022/05/17 00:16:17;;;;;;;6.30;3.35;;;15.70;99.90;;;;;;4922597;29;20087;-78
2022/05/17 00:18:42;;;;;;;4.68;3.00;;;15.70;99.90;;;;;;4923126;29;20027;-79
2022/05/17 00:21:09;;;;;;;7.80;3.10;;;15.60;99.90;;;;;;4935970;29;20028;-80
2022/05/17 00:23:38;;;;;;;6.18;3.53;;;15.60;99.90;;;;;;4935899;29;20059;-78
2022/05/17 00:26:05;;;;;;;6.07;2.95;;;15.60;99.90;;;;;;4920619;29;20680;-80
2022/05/17 00:28:31;;;;;;;4.78;2.50;;;15.60;99.90;;;;;;4930737;29;20364;-79
2022/05/17 00:30:58;;;;;;;3.80;2.40;;;15.50;99.90;;;;;;4922498;29;20063;-79
2022/05/17 00:33:24;;;;;;;4.22;3.00;;;15.50;99.90;;;;;;4933781;29;20024;-79
2022/05/17 00:35:50;;;;;;;4.68;2.88;;;15.50;99.90;;;;;;4937292;29;20525;-80
2022/05/17 00:38:16;;;;;;;3.28;2.92;;;15.50;99.90;;;;;;4920120;29;20026;-78
2022/05/17 00:40:42;;;;;;;4.18;2.40;;;15.50;99.90;;;;;;4930716;29;20027;-79
2022/05/17 00:43:09;;;;;;;4.32;3.28;;;15.50;99.90;;;;;;4921105;29;20063;-78
2022/05/17 00:45:37;;;;;;;4.88;3.05;;;15.40;99.90;;;;;;4917185;29;20028;-79
2022/05/17 00:48:08;;;;;;;3.35;2.70;;;15.40;99.90;;;;;;4934431;29;20038;-78
2022/05/17 00:50:46;;;;;;;8.80;5.07;;;15.30;99.90;;;;;;4919119;29;20111;-79
2022/05/17 00:53:19;;;;;;;2.97;2.67;;;15.20;99.90;;;;;;4920736;29;20042;-79
2022/05/17 00:55:59;;;;;;;7.30;3.42;;;15.20;99.90;;;;;;4913772;29;20393;-80
2022/05/17 00:58:30;;;;;;;4.75;3.10;;;15.20;99.90;;;;;;4911152;29;20043;-79
2022/05/17 01:01:02;;;;;;;4.25;2.65;;;15.30;99.90;;;;;;4917933;29;20053;-78
2022/05/17 01:03:50;;;;;;;4.20;3.28;;;15.30;99.90;;;;;;4919510;29;20031;-79
2022/05/17 01:06:17;;;;;;;5.57;3.95;;;15.20;99.90;;;;;;4902935;29;20076;-80
2022/05/17 01:08:43;;;;;;;5.32;3.25;;;15.10;99.90;;;;;;4896016;29;20048;-79
2022/05/17 01:11:09;;;;;;;4.05;3.67;;;15.10;99.90;;;;;;4893203;29;20032;-79
2022/05/17 01:16:19;;;;;;;4.30;2.35;;;15.00;99.90;;;;;;4896292;29;20032;-79
2022/05/17 01:18:44;;;;;;;4.13;2.70;;;14.90;99.90;;;;;;4896044;29;20033;-80
2022/05/17 01:21:11;;;;;;;6.45;2.85;;;15.00;99.90;;;;;;4890104;29;20032;-80
2022/05/17 01:23:37;;;;;;;5.88;3.28;;;15.00;99.90;;;;;;4900261;29;20393;-79
2022/05/17 01:26:05;;;;;;;5.90;3.05;;;15.00;99.90;;;;;;4891434;29;20029;-80
2022/05/17 01:28:35;;;;;;;5.78;2.80;;;15.00;99.90;;;;;;4895806;29;20041;-79
2022/05/17 01:31:07;;;;;;;8.90;3.40;;;15.00;99.90;;;;;;4890465;29;20032;-79
2022/05/17 01:33:35;;;;;;;5.22;3.33;;;14.90;99.90;;;;;;4891900;29;20032;-79
2022/05/17 01:36:02;;;;;;;2.92;2.47;;;14.90;99.90;;;;;;4892426;29;20027;-79
2022/05/17 01:38:29;;;;;;;9.00;3.10;;;14.90;99.90;;;;;;4891645;29;20029;-79
2022/05/17 01:40:54;;;;;;;7.13;3.45;;;14.80;99.90;;;;;;4893917;29;20099;-78
2022/05/17 01:43:20;;;;;;;4.78;2.80;;;14.80;99.90;;;;;;4898735;29;20032;-79
2022/05/17 01:45:46;;;;;;;5.68;3.08;;;14.80;99.90;;;;;;4892286;29;20437;-79
2022/05/17 01:48:11;;;;;;;5.78;3.25;;;14.90;99.90;;;;;;4896724;29;20080;-79
2022/05/17 01:50:37;;;;;;;4.22;2.88;;;14.90;99.90;;;;;;4895762;29;20048;-78
2022/05/17 01:53:04;;;;;;;7.53;3.28;;;14.90;99.90;;;;;;4897197;29;20029;-79
2022/05/17 01:55:30;;;;;;;6.25;3.28;;;14.90;99.90;;;;;;4898658;29;20484;-78
2022/05/17 01:57:56;;;;;;;6.35;3.55;;;14.90;99.90;;;;;;4898673;29;20084;-79
2022/05/17 02:00:23;;;;;;;9.07;4.13;;;14.90;99.90;;;;;;4891206;29;20040;-79
2022/05/17 02:02:52;;;;;;;6.55;3.72;;;14.80;99.90;;;;;;4892983;29;20528;-79
2022/05/17 02:05:19;;;;;;;6.85;3.78;;;14.70;99.90;;;;;;4908125;29;20058;-79
2022/05/17 02:07:45;;;;;;;5.93;3.58;;;14.60;99.90;;;;;;4930522;29;20031;-78
2022/05/17 02:10:11;;;;;;;6.97;3.60;;;14.50;99.90;;;;;;4933307;29;20487;-79
2022/05/17 02:12:37;;;;;;;6.57;4.10;;;14.50;99.90;;;;;;4931653;29;20564;-78
2022/05/17 02:15:05;;;;;;;5.03;3.70;;;14.50;99.90;;;;;;4918060;29;20192;-78
2022/05/17 02:17:31;;;;;;;6.50;4.43;;;14.50;99.90;;;;;;4917109;29;20028;-79
2022/05/17 02:19:58;;;;;;;4.25;3.80;;;14.40;99.90;;;;;;4918856;29;20058;-79
2022/05/17 02:22:24;;;;;;;7.15;3.90;;;14.30;99.90;;;;;;4918731;29;20028;-79
2022/05/17 02:24:50;;;;;;;6.20;3.92;;;14.40;99.90;;;;;;4936577;29;20031;-80
2022/05/17 02:27:16;;;;;;;9.07;3.97;;;14.40;99.90;;;;;;4915396;29;20035;-79
2022/05/17 02:29:41;;;;;;;6.13;4.47;;;14.30;99.90;;;;;;4919042;29;20031;-79
2022/05/17 02:32:07;;;;;;;6.35;4.50;;;14.40;99.90;;;;;;4935766;29;20039;-79
2022/05/17 02:34:36;;;;;;;4.50;3.67;;;14.30;99.90;;;;;;4918529;29;20028;-79
2022/05/17 02:37:03;;;;;;;6.85;4.63;;;14.30;99.90;;;;;;4937388;29;20028;-79
2022/05/17 02:39:28;;;;;;;5.35;3.97;;;14.20;99.90;;;;;;4930053;29;20034;-80
2022/05/17 02:41:54;;;;;;;4.88;3.92;;;14.30;99.90;;;;;;4918086;29;20015;-79
2022/05/17 02:44:19;;;;;;;5.75;3.92;;;14.20;99.90;;;;;;4926762;29;20090;-79
2022/05/17 02:46:45;;;;;;;8.40;4.10;;;14.20;99.90;;;;;;4937690;29;20031;-79
2022/05/17 02:49:10;;;;;;;4.88;4.00;;;14.20;99.90;;;;;;4928013;29;20115;-79
2022/05/17 02:51:36;;;;;;;10.75;4.97;;;14.10;99.90;;;;;;4937119;29;20507;-79
2022/05/17 02:54:05;;;;;;;6.45;4.03;;;14.10;99.90;;;;;;4918088;29;20095;-80
2022/05/17 02:56:31;;;;;;;7.88;4.03;;;14.10;99.90;;;;;;4919752;29;20047;-79
2022/05/17 02:58:57;;;;;;;7.03;4.03;;;14.10;99.90;;;;;;4918417;29;20023;-79
2022/05/17 03:01:23;;;;;;;6.10;4.32;;;14.20;99.90;;;;;;4935822;29;20034;-79
2022/05/17 03:03:48;;;;;;;7.25;4.05;;;14.10;99.90;;;;;;4924249;29;20055;-79
2022/05/17 03:06:14;;;;;;;9.90;4.90;;;14.10;99.90;;;;;;4902567;29;20056;-79
2022/05/17 03:08:40;;;;;;;4.85;3.90;;;14.10;99.90;;;;;;4890739;29;20033;-79
2022/05/17 03:11:06;;;;;;;7.97;4.32;;;14.20;99.90;;;;;;4896142;29;20091;-79
2022/05/17 03:13:32;;;;;;;6.55;4.88;;;14.10;99.90;;;;;;4889150;29;20037;-79
2022/05/17 03:15:58;;;;;;;7.88;3.83;;;14.10;99.90;;;;;;4897393;29;20059;-79
2022/05/17 03:18:24;;;;;;;7.65;3.92;;;14.00;99.90;;;;;;4885863;29;20025;-78
2022/05/17 03:20:50;;;;;;;7.55;4.10;;;14.00;99.90;;;;;;4896873;29;20504;-79
2022/05/17 03:23:16;;;;;;;6.68;4.40;;;14.10;99.90;;;;;;4893277;29;20079;-78
2022/05/17 03:25:42;;;;;;;6.22;4.38;;;14.10;99.90;;;;;;4898806;29;20477;-78
2022/05/17 03:28:09;;;;;;;12.10;4.95;;;14.00;99.90;;;;;;4887877;29;20394;-79
2022/05/17 03:30:35;;;;;;;5.43;4.78;;;14.00;99.90;;;;;;4895880;29;20028;-79
2022/05/17 03:33:00;;;;;;;6.32;4.47;;;14.00;99.90;;;;;;4893906;29;20041;-80
2022/05/17 03:35:26;;;;;;;9.13;4.43;;;14.00;99.90;;;;;;4886530;29;20123;-79
2022/05/17 03:37:52;;;;;;;6.88;4.50;;;14.00;99.90;;;;;;4891280;29;20393;-78
2022/05/17 03:40:18;;;;;;;8.40;4.30;;;14.10;99.90;;;;;;4895201;29;20044;-78
2022/05/17 03:42:44;;;;;;;10.70;4.72;;;14.10;99.90;;;;;;4894869;29;20036;-79
2022/05/17 03:45:10;;;;;;;6.03;4.32;;;13.90;99.90;;;;;;4897006;29;20033;-80
2022/05/17 03:47:36;;;;;;;7.60;4.72;;;13.90;99.90;;;;;;4891246;29;20039;-78
2022/05/17 03:50:03;;;;;;;7.90;5.00;;;13.80;99.90;;;;;;4895556;29;20029;-79
2022/05/17 03:52:30;;;;;;;9.98;6.10;;;13.80;99.90;;;;;;4896346;29;20032;-79
2022/05/17 03:54:57;;;;;;;7.45;5.32;;;13.80;99.90;;;;;;4896896;29;20065;-79
2022/05/17 03:57:24;;;;;;;9.85;4.68;;;13.90;99.90;;;;;;4891630;29;20083;-80
2022/05/17 03:59:50;;;;;;;6.95;4.82;;;13.90;99.90;;;;;;4885587;29;20077;-82
2022/05/17 04:02:16;;;;;;;7.78;4.55;;;14.00;99.90;;;;;;4898437;29;20028;-80
2022/05/17 04:04:41;;;;;;;8.63;4.68;;;14.10;99.90;;;;;;4890761;29;20033;-79
2022/05/17 04:07:07;;;;;;;7.65;4.93;;;14.20;99.90;;;;;;4914519;29;20032;-79
2022/05/17 04:09:33;;;;;;;8.70;5.18;;;14.30;99.90;;;;;;4934408;29;20032;-79
2022/05/17 04:11:59;;;;;;;8.65;3.60;;;14.40;99.90;;;;;;4934723;29;20036;-79
2022/05/17 04:14:24;;;;;;;11.10;5.07;;;14.60;99.90;;;;;;4917035;29;20019;-79
2022/05/17 04:16:51;;;;;;;5.78;4.38;;;14.70;99.90;;;;;;4932698;29;20032;-79
2022/05/17 04:19:17;;;;;;;6.35;3.83;;;14.80;99.90;;;;;;4917001;29;20030;-79
2022/05/17 04:21:43;;;;;;;6.72;4.65;;;14.90;99.90;;;;;;4934552;29;20424;-78
2022/05/17 04:24:10;;;;;;;9.20;3.70;;;15.40;99.90;;;;;;4916557;29;20059;-80
2022/05/17 04:26:35;;;;;;;5.28;3.97;;;15.60;99.90;;;;;;4915403;29;20031;-79
2022/05/17 04:29:02;;;;;;;8.93;4.07;;;15.80;99.90;;;;;;4917828;29;20050;-79
2022/05/17 04:31:28;;;;;;;8.50;3.63;;;16.40;99.90;;;;;;4912325;29;20114;-80
2022/05/17 04:33:53;;;;;;;7.22;4.50;;;16.70;99.90;;;;;;4920334;29;20112;-80
2022/05/17 04:36:19;;;;;;;8.52;4.07;;;16.70;99.90;;;;;;4938621;29;20035;-80
2022/05/17 04:38:45;;;;;;;11.65;4.03;;;16.60;99.90;;;;;;4920859;29;20051;-80
2022/05/17 04:41:11;;;;;;;6.90;3.65;;;17.00;99.90;;;;;;4921237;29;20123;-79
2022/05/17 04:43:38;;;;;;;6.68;4.10;;;17.10;99.90;;;;;;4918703;29;20082;-79
2022/05/17 04:46:04;;;;;;;12.52;3.85;;;17.00;99.90;;;;;;4921316;29;20036;-80
2022/05/17 04:48:29;;;;;;;5.57;3.72;;;17.40;99.90;;;;;;4931703;29;20435;-79
2022/05/17 04:50:55;;;;;;;11.38;5.00;;;17.50;99.90;;;;;;4916977;29;20035;-79
2022/05/17 04:53:20;;;;;;;6.75;4.30;;;17.80;99.90;;;;;;4936977;29;20484;-80
2022/05/17 04:55:46;;;;;;;7.03;5.05;;;18.50;99.90;;;;;;4928835;29;20111;-80
2022/05/17 04:58:12;;;;;;;11.32;5.00;;;18.20;99.90;;;;;;4917983;29;20024;-79
2022/05/17 05:00:38;;;;;;;6.70;4.38;;;19.00;99.90;;;;;;4937981;29;20513;-79
2022/05/17 05:03:04;;;;;;;7.07;4.18;;;19.80;99.90;;;;;;4945543;29;20091;-79
2022/05/17 05:05:30;;;;;;;6.68;3.45;;;20.40;99.90;;;;;;4916802;29;20040;-79
2022/05/17 05:07:55;;;;;;;7.07;4.25;;;20.80;99.90;;;;;;4937601;29;20024;-80
2022/05/17 05:10:21;;;;;;;10.43;3.70;;;21.40;99.90;;;;;;4926594;29;20107;-79
2022/05/17 05:12:47;;;;;;;5.60;4.10;;;21.50;99.90;;;;;;4916966;29;20551;-79
2022/05/17 05:15:13;;;;;;;4.80;3.05;;;21.40;99.90;;;;;;4943527;28;20157;-78
2022/05/17 05:17:40;;;;;;;8.55;3.13;;;20.80;99.90;;;;;;4916646;29;20079;-80
2022/05/17 05:20:09;;;;;;;5.47;3.45;;;20.80;99.90;;;;;;4937584;29;20028;-79
2022/05/17 05:22:34;;;;;;;7.10;3.50;;;20.80;99.90;;;;;;4936473;29;20542;-79
2022/05/17 05:25:01;;;;;;;6.47;3.65;;;20.50;99.90;;;;;;4931152;29;20092;-78
2022/05/17 05:27:37;;;;;;;5.53;2.88;;;20.50;99.90;;;;;;4910978;29;20064;-79
2022/05/17 05:30:06;;;;;;;3.83;3.08;;;22.00;99.90;;;;;;4921229;29;20094;-78
2022/05/17 05:32:31;;;;;;;6.47;2.90;;;21.90;99.90;;;;;;4922076;29;20111;-80
2022/05/17 05:34:57;;;;;;;7.30;3.58;;;23.10;99.90;;;;;;4933171;29;20127;-79
2022/05/17 05:37:22;;;;;;;7.70;3.00;;;22.50;99.90;;;;;;4937618;29;20031;-79
2022/05/17 05:39:48;;;;;;;5.10;3.17;;;22.30;99.90;;;;;;4935082;29;20035;-78
2022/05/17 05:42:14;;;;;;;6.15;3.15;;;22.90;99.90;;;;;;4938287;29;20032;-79
2022/05/17 05:44:39;;;;;;;9.32;3.30;;;23.10;99.90;;;;;;4940344;28;20027;-78
2022/05/17 05:47:05;;;;;;;5.13;3.30;;;22.80;99.90;;;;;;4937079;29;20087;-79
2022/05/17 05:49:30;;;;;;;5.15;3.47;;;22.00;99.90;;;;;;4936754;29;20031;-79
2022/05/17 05:51:56;;;;;;;7.32;3.17;;;21.70;99.90;;;;;;4930814;29;20083;-79
2022/05/17 05:54:21;;;;;;;5.65;3.92;;;21.30;99.90;;;;;;4930145;29;20562;-79
2022/05/17 05:56:47;;;;;;;7.45;3.22;;;22.30;99.90;;;;;;4938303;29;20027;-79
2022/05/17 05:59:12;;;;;;;6.35;3.42;;;23.20;99.90;;;;;;4918589;29;20033;-79
2022/05/17 06:01:39;;;;;;;7.22;3.80;;;23.40;99.90;;;;;;4905770;29;20036;-79
2022/05/17 06:04:05;;;;;;;6.07;3.42;;;23.00;99.90;;;;;;4920061;29;20036;-81
2022/05/17 06:06:31;;;;;;;7.95;3.55;;;22.70;99.90;;;;;;4889626;29;20049;-80
2022/05/17 06:08:57;;;;;;;4.90;3.30;;;22.40;99.90;;;;;;4895473;29;20483;-79
2022/05/17 06:11:22;;;;;;;4.10;3.53;;;22.40;99.90;;;;;;4891428;29;20124;-80
2022/05/17 06:13:48;;;;;;;11.20;3.60;;;23.10;99.90;;;;;;4889295;29;20644;-79
2022/05/17 06:16:14;;;;;;;6.03;3.55;;;22.60;99.90;;;;;;4897478;29;20052;-79
2022/05/17 06:18:40;;;;;;;6.32;3.03;;;22.30;99.90;;;;;;4887525;29;20029;-80
2022/05/17 06:21:05;;;;;;;6.78;3.40;;;21.50;99.90;;;;;;4897672;29;20048;-80
2022/05/17 06:23:32;;;;;;;8.20;4.25;;;21.00;99.90;;;;;;4892115;29;20135;-79
2022/05/17 06:25:58;;;;;;;7.40;3.75;;;21.10;99.90;;;;;;4899068;29;20059;-80
2022/05/17 06:28:24;;;;;;;24.63;5.18;;;21.00;99.90;;;;;;4894942;29;20484;-80
2022/05/17 06:30:50;;;;;;;5.88;4.03;;;20.90;99.90;;;;;;4894744;29;20063;-80
2022/05/17 06:33:16;;;;;;;7.03;3.63;;;20.80;99.90;;;;;;4898862;29;20032;-79
2022/05/17 06:35:43;;;;;;;9.73;4.88;;;20.60;99.90;;;;;;4895560;29;20056;-78
2022/05/17 06:38:09;;;;;;;7.72;3.95;;;20.50;99.90;;;;;;4895568;29;20060;-78
2022/05/17 06:40:36;;;;;;;7.22;3.90;;;20.50;99.90;;;;;;4890596;29;20037;-79
2022/05/17 06:43:02;;;;;;;6.65;4.45;;;20.50;99.90;;;;;;4894594;29;20037;-81
2022/05/17 06:45:27;;;;;;;9.75;3.95;;;20.50;99.90;;;;;;4899524;29;20018;-80
2022/05/17 06:47:53;;;;;;;5.75;4.03;;;20.60;99.90;;;;;;4898293;29;20029;-78
2022/05/17 06:50:19;;;;;;;9.07;3.83;;;20.60;99.90;;;;;;4908988;29;20036;-81
2022/05/17 06:52:44;;;;;;;6.85;4.90;;;20.50;99.90;;;;;;4895787;29;20036;-78
2022/05/17 06:55:11;;;;;;;7.65;4.10;;;20.70;99.90;;;;;;4896450;29;20029;-80
2022/05/17 06:57:37;;;;;;;6.50;4.85;;;20.90;99.90;;;;;;4892920;29;20039;-81
2022/05/17 07:00:08;;;;;;;8.00;3.88;;;21.00;99.90;;;;;;4896876;29;20080;-80
2022/05/17 07:02:34;;;;;;;8.60;5.10;;;21.00;99.90;;;;;;4897452;29;20032;-78
2022/05/17 07:04:59;;;;;;;9.70;4.65;;;21.20;99.90;;;;;;4897745;29;20054;-79
2022/05/17 07:07:26;;;;;;;9.52;4.90;;;20.90;99.90;;;;;;4917675;29;20415;-80
2022/05/17 07:15:21;;;;;;;7.68;5.00;;;21.30;99.90;;;;;;4924748;29;20419;-79
2022/05/17 07:17:47;;;;;;;5.35;3.60;;;21.30;99.90;;;;;;4917794;29;20111;-78
2022/05/17 07:20:13;;;;;;;6.85;4.40;;;21.40;99.90;;;;;;4933850;29;20028;-78
2022/05/17 07:22:39;;;;;;;10.73;4.40;;;21.60;99.90;;;;;;4932861;29;20055;-79
2022/05/17 07:25:05;;;;;;;6.68;4.10;;;21.40;99.90;;;;;;4916193;29;20062;-78
2022/05/17 07:27:31;;;;;;;5.82;4.15;;;21.60;99.90;;;;;;4923611;29;20020;-79
2022/05/17 07:29:56;;;;;;;7.68;4.13;;;21.80;99.90;;;;;;4923420;29;20503;-77
2022/05/17 07:32:22;;;;;;;7.13;3.83;;;21.50;99.90;;;;;;4926658;29;20107;-78
2022/05/17 07:34:47;;;;;;;5.72;3.95;;;21.70;99.90;;;;;;4926420;29;20052;-78
2022/05/17 07:37:13;;;;;;;7.03;4.05;;;22.00;99.90;;;;;;4925725;29;20032;-77
2022/05/17 07:39:39;;;;;;;7.50;5.05;;;22.20;99.90;;;;;;4929099;29;20040;-78
2022/05/17 07:42:06;;;;;;;8.05;4.32;;;22.20;99.90;;;;;;4925513;29;20251;-78
2022/05/17 07:44:33;;;;;;;8.43;4.30;;;22.20;99.90;;;;;;4926995;29;20036;-78
2022/05/17 07:46:58;;;;;;;6.25;3.70;;;21.90;99.90;;;;;;4914310;29;20040;-78
2022/05/17 07:49:24;;;;;;;7.35;4.47;;;22.20;99.90;;;;;;4928020;29;20388;-78
2022/05/17 07:51:50;;;;;;;6.78;3.17;;;22.50;99.90;;;;;;4923533;29;20503;-78
2022/05/17 07:54:15;;;;;;;5.90;2.95;;;22.50;99.90;;;;;;4933607;29;20087;-78
2022/05/17 07:56:41;;;;;;;7.00;3.45;;;22.60;99.90;;;;;;4911135;29;20137;-78
2022/05/17 07:59:07;;;;;;;7.43;3.00;;;22.70;99.90;;;;;;4915690;29;20031;-77
2022/05/17 08:01:33;;;;;;;4.20;1.98;;;22.70;99.90;;;;;;4905039;29;20050;-78
2022/05/17 08:03:58;;;;;;;3.17;2.33;;;23.00;99.90;;;;;;4943671;29;20042;-78
2022/05/17 08:06:24;;;;;;;4.55;2.83;;;22.90;99.90;;;;;;4929883;29;20535;-78
2022/05/17 08:08:50;;;;;;;5.68;2.33;;;22.90;99.90;;;;;;4930938;29;20036;-79
2022/05/17 08:11:15;;;;;;;5.10;2.85;;;23.20;99.90;;;;;;4918983;29;20444;-77
2022/05/17 08:13:41;;;;;;;7.20;2.90;;;23.40;99.90;;;;;;4928476;29;20436;-77
2022/05/17 08:16:06;;;;;;;4.80;2.40;;;23.40;99.90;;;;;;4935181;29;20102;-77
2022/05/17 08:18:32;;;;;;;4.97;2.83;;;23.50;99.20;;;;;;4917192;29;20307;-78
2022/05/17 08:20:57;;;;;;;7.57;3.50;;;23.40;99.40;;;;;;4914886;29;20501;-78
2022/05/17 08:23:23;;;;;;;5.25;2.83;;;23.30;99.70;;;;;;4931474;29;20499;-78
2022/05/17 08:28:33;;;;;;;5.15;2.70;;;23.30;99.70;;;;;;4927952;29;20062;-79
2022/05/17 08:30:59;;;;;;;3.72;2.65;;;23.30;99.90;;;;;;4930120;29;20717;-77
2022/05/17 08:33:26;;;;;;;3.38;2.15;;;23.60;99.10;;;;;;4913380;29;20076;-78
2022/05/17 08:36:05;;;;;;;5.85;3.35;;;23.90;98.40;;;;;;4920810;29;20488;-79
2022/05/17 08:38:39;;;;;;;4.55;2.25;;;24.00;98.10;;;;;;4926524;29;20429;-77
2022/05/17 08:41:23;;;;;;;2.30;1.83;;;24.00;97.80;;;;;;4918486;29;20024;-78
2022/05/17 08:44:07;;;;;;;4.70;2.00;;;23.80;97.60;;;;;;4930377;29;20055;-79
2022/05/17 08:46:45;;;;;;;5.40;1.85;;;23.90;97.60;;;;;;4912000;29;20035;-78
2022/05/17 08:49:27;;;;;;;3.55;2.30;;;23.70;98.00;;;;;;4927182;29;20032;-78
2022/05/17 08:51:58;;;;;;;5.38;1.65;;;24.20;96.80;;;;;;4925337;29;20032;-79
2022/05/17 08:54:25;;;;;;;;;;;24.00;96.40;;;;;;4931641;29;20024;-78
2022/05/17 08:57:04;;;;;;;5.93;2.30;;;24.20;96.60;;;;;;4911960;29;20010;-80
2022/05/17 08:59:35;;;;;;;4.63;2.15;;;24.10;96.60;;;;;;4917441;29;20031;-77
2022/05/17 09:02:04;;;;;;;;;;;24.40;96.30;;;;;;4937379;29;20035;-78
2022/05/17 09:04:59;;;;;;;3.63;2.30;;;24.50;96.10;;;;;;4928439;29;19910;-78
2022/05/17 09:07:27;;;;;;;4.45;2.65;;;24.40;95.90;;;;;;4924302;29;20044;-78
2022/05/17 09:09:59;;;;;;;4.90;1.95;;;23.90;96.60;;;;;;4931074;29;20034;-79
2022/05/17 09:12:34;;;;;;;4.00;2.72;;;23.60;96.40;;;;;;4909615;29;20024;-78
2022/05/17 09:15:01;;;;;;;4.13;1.80;;;23.90;96.10;;;;;;4917885;29;20031;-80
2022/05/17 09:17:28;;;;;;;3.65;2.00;;;23.60;96.10;;;;;;4926292;29;20540;-78
2022/05/17 09:19:54;;;;;;;2.45;2.17;;;23.80;96.30;;;;;;4917578;29;20027;-79
2022/05/17 09:22:20;;;;;;;5.80;2.15;;;24.20;95.90;;;;;;4930228;29;20360;-79
2022/05/17 09:24:56;;;;;;;2.78;1.85;;;24.10;95.90;;;;;;4929927;29;20105;-79
2022/05/17 09:27:30;;;;;;;6.38;2.50;;;24.40;95.20;;;;;;4927287;29;20094;-78
2022/05/17 09:30:21;;;;;;;4.95;2.78;;;24.20;95.70;;;;;;4936449;29;20024;-78
2022/05/17 09:32:47;;;;;;;4.25;2.33;;;24.60;95.30;;;;;;4925581;29;20060;-78
2022/05/17 09:35:20;;;;;;;3.65;2.45;;;24.20;95.20;;;;;;4919822;29;20036;-79
2022/05/17 09:37:50;;;;;;;3.92;2.15;;;24.40;95.40;;;;;;4920627;29;20020;-79
2022/05/17 09:40:22;;;;;;;3.58;2.40;;;24.40;95.00;;;;;;4929084;29;20036;-78
2022/05/17 09:43:02;;;;;;;4.55;1.80;;;24.20;95.50;;;;;;4929116;29;20486;-78
2022/05/17 09:45:39;;;;;;;3.17;2.67;;;25.00;94.30;;;;;;4908725;29;20460;-78
2022/05/17 09:48:06;;;;;;;4.53;2.95;;;25.30;94.10;;;;;;4920215;29;20024;-78
2022/05/17 09:53:43;;;;;;;6.78;2.25;;;25.20;94.20;;;;;;4930660;29;20034;-78
2022/05/17 09:56:09;;;;;;;5.65;2.45;;;25.00;94.20;;;;;;4924491;29;20016;-79
2022/05/17 09:58:38;;;;;;;4.10;2.15;;;25.00;94.10;;;;;;4932719;29;20409;-78
2022/05/17 10:01:22;;;;;;;4.20;2.35;;;25.00;93.50;;;;;;4919319;29;20126;-79
2022/05/17 10:04:09;;;;;;;4.22;2.13;;;24.70;93.80;;;;;;4925580;29;20040;-79
2022/05/17 10:06:38;;;;;;;4.32;2.15;;;24.70;94.30;;;;;;4925582;29;20056;-79
2022/05/17 10:09:05;;;;;;;5.35;2.97;;;24.70;94.50;;;;;;4917258;29;20426;-78
2022/05/17 10:11:52;;;;;;;6.95;1.92;;;25.20;94.10;;;;;;4932061;29;20082;-79
2022/05/17 10:14:36;;;;;;;5.50;2.20;;;25.60;93.10;;;;;;4914747;29;20100;-79
2022/05/17 10:17:07;;;;;;;2.35;1.85;;;25.50;93.00;;;;;;4917352;29;20038;-79
2022/05/17 10:19:48;;;;;;;4.30;2.47;;;25.70;92.80;;;;;;4910014;29;20031;-78
2022/05/17 10:22:16;;;;;;;3.30;2.22;;;25.30;92.30;;;;;;4926816;29;20024;-78
2022/05/17 10:25:17;;;;;;;4.40;2.30;;;25.50;92.70;;;;;;4928526;29;20108;-78
2022/05/17 10:27:54;;;;;;;2.80;2.20;;;25.10;92.70;;;;;;4902459;29;20101;-79
2022/05/17 10:30:40;;;;;;;3.47;2.40;;;24.60;93.00;;;;;;4927188;29;20377;-78
2022/05/17 10:33:14;;;;;;;4.10;2.10;;;25.00;93.00;;;;;;4927227;29;20055;-78
2022/05/17 10:35:44;;;;;;;2.33;1.88;;;25.30;92.50;;;;;;4927898;29;20063;-79
2022/05/17 10:38:12;;;;;;;;;;;25.60;92.10;;;;;;4926716;29;20557;-79
2022/05/17 10:40:45;;;;;;;4.20;3.20;;;25.60;92.20;;;;;;4915944;29;19917;-78
2022/05/17 10:43:18;;;;;;;5.78;2.10;;;25.40;91.60;;;;;;4926912;29;20031;-77
2022/05/17 10:45:49;;;;;;;6.45;2.28;;;25.90;91.90;;;;;;4919908;29;20028;-78
2022/05/17 10:48:38;;;;;;;3.60;2.10;;;26.00;91.40;;;;;;4926234;29;20024;-79
2022/05/17 10:51:04;;;;;;;3.50;1.88;;;26.10;91.30;;;;;;4929316;29;20554;-80
2022/05/17 10:53:44;;;;;;;3.05;2.05;;;26.00;91.40;;;;;;4930405;29;20028;-80
2022/05/17 10:56:29;;;;;;;2.78;1.90;;;25.70;91.50;;;;;;4938709;29;20020;-79
2022/05/17 10:59:08;;;;;;;2.63;1.75;;;25.20;91.90;;;;;;4913830;29;20092;-82
2022/05/17 11:02:19;;;;;;;2.10;1.52;;;25.70;91.70;;;;;;4912952;29;20028;-80
2022/05/17 11:05:07;;;;;;;2.67;1.92;;;25.80;91.30;;;;;;4915749;29;20669;-79
2022/05/17 11:07:56;;;;;;;3.05;1.90;;;26.00;91.30;;;;;;4913204;29;20020;-78
2022/05/17 11:10:30;;;;;;;3.72;2.30;;;26.20;90.60;;;;;;4924929;29;20047;-79
2022/05/17 11:13:12;;;;;;;3.78;1.90;;;26.20;90.70;;;;;;4918970;29;20020;-80
2022/05/17 11:15:45;;;;;;;2.70;2.10;;;26.20;90.40;;;;;;4924580;29;20167;-79
2022/05/17 11:18:22;;;;;;;4.82;2.30;;;25.80;90.90;;;;;;4926554;29;20024;-79
2022/05/17 11:21:12;;;;;;;3.60;1.63;;;25.40;90.60;;;;;;4915351;29;20024;-79
2022/05/17 11:23:41;;;;;;;7.15;2.40;;;25.80;90.20;;;;;;4924488;29;20031;-78
2022/05/17 11:26:15;;;;;;;3.28;2.00;;;25.80;90.30;;;;;;4917221;29;20039;-78
2022/05/17 11:29:00;;;;;;;3.05;1.75;;;26.20;89.30;;;;;;4914764;29;20036;-79
2022/05/17 11:31:29;;;;;;;3.22;1.60;;;26.40;88.80;;;;;;4931263;29;20024;-79
2022/05/17 11:34:23;;;;;;;4.65;1.80;;;26.60;88.30;;;;;;4926011;29;20036;-79
2022/05/17 11:36:51;;;;;;;2.90;1.60;;;26.60;86.90;;;;;;4931411;29;20027;-79
2022/05/17 11:39:41;;;;;;;4.47;1.50;;;26.60;86.60;;;;;;4925872;29;20485;-79
2022/05/17 11:42:25;;;;;;;2.27;1.93;;;26.30;88.40;;;;;;4918271;29;20031;-77
2022/05/17 11:44:51;;;;;;;3.08;1.85;;;26.50;87.10;;;;;;4944341;29;20492;-79
2022/05/17 11:47:35;;;;;;;3.25;1.50;;;26.30;87.40;;;;;;4928923;29;20047;-78
2022/05/17 11:50:16;;;;;;;3.00;1.88;;;26.10;88.50;;;;;;4938186;29;20028;-78
2022/05/17 11:52:43;;;;;;;4.78;1.70;;;26.00;89.50;;;;;;4918103;29;20028;-78
2022/05/17 11:55:12;;;;;;;4.05;1.67;;;25.70;89.50;;;;;;4911350;29;20036;-78
2022/05/17 11:57:38;;;;;;;4.82;2.22;;;25.50;89.50;;;;;;4915582;29;20074;-78
2022/05/17 12:00:27;;;;;;;5.43;1.90;;;25.80;89.70;;;;;;4924293;29;20064;-78
2022/05/17 12:02:57;;;;;;;4.43;1.70;;;25.80;87.80;;;;;;4922243;29;20036;-79
2022/05/17 12:05:39;;;;;;;2.80;1.67;;;26.10;88.60;;;;;;4929018;29;20050;-79
2022/05/17 12:08:36;;;;;;;2.03;1.83;;;26.50;85.70;;;;;;4930423;29;20720;-78
2022/05/17 12:11:11;;;;;;;2.30;1.70;;;26.50;87.20;;;;;;4935809;29;20406;-78
2022/05/17 12:13:52;;;;;;;2.28;1.60;;;26.40;86.50;;;;;;4920927;29;20454;-79
2022/05/17 12:16:21;;;;;;;4.10;2.10;;;26.40;86.60;;;;;;4934258;29;20385;-78
2022/05/17 12:19:12;;;;;;;6.20;1.48;;;26.50;86.80;;;;;;4930401;29;20027;-78
2022/05/17 12:21:49;;;;;;;;;;;26.30;85.60;;;;;;4906068;29;20044;-78
2022/05/17 12:24:47;;;;;;;3.67;1.80;;;26.20;85.20;;;;;;4915601;29;20382;-79
2022/05/17 12:27:32;;;;;;;2.42;1.30;;;25.90;85.60;;;;;;4919905;29;20060;-80
2022/05/17 12:33:16;;;;;;;5.35;1.27;;;26.00;84.80;;;;;;4932578;29;20047;-78
2022/05/17 12:35:42;;;;;;;4.63;1.00;;;26.20;84.40;;;;;;4916212;29;20035;-79
2022/05/17 12:43:59;;;;;;;6.78;1.13;;;26.30;81.30;;;;;;4890571;29;20091;-78
2022/05/17 12:46:31;;;;;;;2.60;0.90;;;26.30;81.00;;;;;;4917169;29;20044;-78
2022/05/17 12:49:01;;;;;;;0.95;0.60;;;26.30;79.90;;;;;;4919349;29;20027;-78
2022/05/17 12:51:29;;;;;;;3.25;0.90;;;26.10;79.80;;;;;;4933062;29;20019;-79
2022/05/17 12:53:56;;;;;;;8.43;1.25;;;26.30;80.40;;;;;;4919260;29;20035;-78
2022/05/17 12:56:32;;;;;;;5.70;1.17;;;26.50;80.30;;;;;;4927245;29;20381;-79
2022/05/17 12:59:01;;;;;;;1.42;0.82;;;26.30;81.40;;;;;;4930262;29;20496;-80
2022/05/17 13:01:40;;;;;;;1.77;1.10;;;26.30;80.50;;;;;;4919165;29;20023;-80
2022/05/17 13:04:15;;;;;;;1.80;1.23;;;26.20;80.20;;;;;;4925331;29;20404;-79
2022/05/17 13:06:49;;;;;;;2.53;1.80;;;26.20;79.00;;;;;;4916910;29;20135;-78
2022/05/17 13:09:21;;;;;;;1.73;1.00;;;26.00;79.30;;;;;;4929153;29;20103;-78
2022/05/17 13:11:48;;;;;;;1.38;0.75;;;26.20;79.40;;;;;;4918457;29;20112;-79
2022/05/17 13:14:25;;;;;;;5.05;1.05;;;26.30;79.00;;;;;;4929018;29;20080;-79
2022/05/17 13:16:52;;;;;;;1.67;0.70;;;26.20;79.60;;;;;;4930076;29;20024;-79
2022/05/17 13:19:22;;;;;;;1.85;1.10;;;26.40;80.60;;;;;;4915892;29;20024;-79
2022/05/17 13:21:54;;;;;;;1.75;1.33;;;26.10;81.70;;;;;;4929265;29;20083;-78
2022/05/17 13:24:22;;;;;;;1.77;1.08;;;26.50;81.20;;;;;;4926533;29;20733;-78